createdAt,value
2023-09-27T00:00:38.371Z,14.98
2023-09-27T00:03:09.177Z,14.95
2023-09-27T00:05:37.938Z,14.94
2023-09-27T00:08:08.177Z,14.92
2023-09-27T00:10:38.831Z,14.91
2023-09-27T00:13:08.035Z,14.91
2023-09-27T00:15:36.280Z,14.92
2023-09-27T00:18:06.375Z,14.93
2023-09-27T00:20:35.976Z,14.91
2023-09-27T00:23:04.748Z,14.92
2023-09-27T00:25:34.734Z,14.93
2023-09-27T00:28:05.371Z,14.89
2023-09-27T00:30:37.070Z,14.87
2023-09-27T00:33:06.419Z,14.87
2023-09-27T00:35:34.959Z,14.88
2023-09-27T00:38:04.235Z,14.87
2023-09-27T00:40:35.410Z,14.86
2023-09-27T00:43:05.484Z,14.82
2023-09-27T00:45:36.354Z,14.81
2023-09-27T00:48:05.295Z,14.82
2023-09-27T00:50:34.195Z,14.81
2023-09-27T00:53:02.853Z,14.82
2023-09-27T00:55:33.609Z,14.81
2023-09-27T00:58:01.542Z,14.78
2023-09-27T01:00:31.935Z,14.75
2023-09-27T01:03:04.666Z,14.74
2023-09-27T01:05:35.461Z,14.71
2023-09-27T01:08:04.663Z,14.71
2023-09-27T01:10:36.930Z,14.67
2023-09-27T01:13:06.401Z,14.63
2023-09-27T01:15:38.200Z,14.58
2023-09-27T01:18:07.048Z,14.57
2023-09-27T01:20:35.507Z,14.55
2023-09-27T01:23:08.218Z,14.53
2023-09-27T01:25:37.812Z,14.49
2023-09-27T01:28:07.864Z,14.47
2023-09-27T01:30:38.957Z,14.47
2023-09-27T01:33:09.331Z,14.43
2023-09-27T01:35:39.490Z,14.42
2023-09-27T01:38:10.448Z,14.42
2023-09-27T01:40:42.227Z,14.41
2023-09-27T01:43:14.089Z,14.38
2023-09-27T01:45:43.876Z,14.35
2023-09-27T01:48:13.590Z,14.35
2023-09-27T01:50:42.671Z,14.34
2023-09-27T01:53:14.749Z,14.30
2023-09-27T01:55:42.767Z,14.25
2023-09-27T01:58:16.073Z,14.22
2023-09-27T02:00:45.398Z,14.21
2023-09-27T02:03:13.421Z,14.20
2023-09-27T02:05:42.454Z,14.20
2023-09-27T02:08:14.186Z,14.17
2023-09-27T02:10:43.616Z,14.14
2023-09-27T02:13:14.400Z,14.11
2023-09-27T02:15:44.739Z,14.07
2023-09-27T02:18:13.344Z,14.00
2023-09-27T02:20:41.716Z,14.01
2023-09-27T02:23:11.233Z,14.01
2023-09-27T02:25:42.510Z,14.02
2023-09-27T02:28:11.691Z,14.03
2023-09-27T02:30:41.159Z,14.03
2023-09-27T02:33:10.158Z,14.03
2023-09-27T02:35:39.978Z,14.01
2023-09-27T02:38:12.895Z,13.97
2023-09-27T02:40:44.392Z,13.98
2023-09-27T02:43:13.355Z,13.98
2023-09-27T02:45:41.766Z,13.98
2023-09-27T02:48:10.642Z,13.95
2023-09-27T02:50:38.990Z,13.92
2023-09-27T02:53:06.933Z,13.91
2023-09-27T02:55:36.332Z,13.90
2023-09-27T02:58:06.189Z,13.89
2023-09-27T03:00:37.664Z,13.91
2023-09-27T03:03:08.712Z,13.89
2023-09-27T03:05:40.008Z,13.87
2023-09-27T03:08:15.920Z,13.85
2023-09-27T03:10:44.123Z,13.83
2023-09-27T03:13:13.877Z,13.80
2023-09-27T03:15:43.046Z,13.80
2023-09-27T03:18:12.976Z,13.78
2023-09-27T03:20:41.222Z,13.78
2023-09-27T03:23:11.624Z,13.76
2023-09-27T03:25:42.110Z,13.72
2023-09-27T03:28:10.509Z,13.73
2023-09-27T03:30:40.535Z,13.76
2023-09-27T03:33:13.436Z,13.72
2023-09-27T03:35:42.598Z,13.70
2023-09-27T03:38:10.719Z,13.68
2023-09-27T03:40:42.267Z,13.67
2023-09-27T03:43:11.231Z,13.66
2023-09-27T03:45:40.664Z,13.66
2023-09-27T03:48:13.901Z,13.65
2023-09-27T03:50:42.469Z,13.66
2023-09-27T03:53:10.591Z,13.64
2023-09-27T03:55:39.453Z,13.62
2023-09-27T03:58:07.715Z,13.60
2023-09-27T04:00:35.906Z,13.56
2023-09-27T04:03:07.660Z,13.57
2023-09-27T04:05:36.863Z,13.58
2023-09-27T04:08:05.640Z,13.58
2023-09-27T04:10:36.584Z,13.56
2023-09-27T04:13:05.221Z,13.55
2023-09-27T04:15:33.799Z,13.53
2023-09-27T04:18:04.346Z,13.51
2023-09-27T04:20:35.919Z,13.49
2023-09-27T04:23:08.536Z,13.47
2023-09-27T04:25:38.042Z,13.47
2023-09-27T04:28:06.570Z,13.46
2023-09-27T04:30:35.212Z,13.44
2023-09-27T04:33:03.365Z,13.43
2023-09-27T04:35:33.553Z,13.45
2023-09-27T04:38:05.499Z,13.42
2023-09-27T04:40:34.102Z,13.39
2023-09-27T04:43:05.256Z,13.41
2023-09-27T04:45:36.504Z,13.40
2023-09-27T04:48:05.700Z,13.37
2023-09-27T04:50:37.380Z,13.34
2023-09-27T04:53:06.380Z,13.36
2023-09-27T04:55:35.759Z,13.33
2023-09-27T04:58:04.655Z,13.31
2023-09-27T05:00:33.884Z,13.31
2023-09-27T05:03:02.607Z,13.30
2023-09-27T05:05:30.821Z,13.23
2023-09-27T05:08:00.468Z,13.23
2023-09-27T05:10:32.439Z,13.24
2023-09-27T05:13:00.532Z,13.22
2023-09-27T05:15:31.749Z,13.19
2023-09-27T05:18:00.676Z,13.19
2023-09-27T05:20:29.670Z,13.18
2023-09-27T05:22:57.728Z,13.20
2023-09-27T05:25:31.863Z,13.19
2023-09-27T05:28:00.298Z,13.18
2023-09-27T05:30:29.344Z,13.15
2023-09-27T05:32:59.407Z,13.13
2023-09-27T05:35:27.599Z,13.13
2023-09-27T05:37:57.092Z,13.12
2023-09-27T05:40:25.570Z,13.17
2023-09-27T05:42:55.295Z,13.10
2023-09-27T05:45:23.791Z,13.14
2023-09-27T05:47:51.957Z,13.18
2023-09-27T05:50:20.153Z,13.20
2023-09-27T05:52:48.634Z,13.22
2023-09-27T05:55:18.854Z,13.26
2023-09-27T05:57:50.720Z,13.30
2023-09-27T06:00:27.584Z,13.30
2023-09-27T06:02:56.074Z,13.36
2023-09-27T06:05:27.531Z,13.42
2023-09-27T06:07:55.549Z,13.46
2023-09-27T06:10:24.694Z,13.48
2023-09-27T06:12:53.301Z,13.52
2023-09-27T06:15:22.954Z,13.58
2023-09-27T06:17:53.630Z,13.62
2023-09-27T06:20:25.885Z,13.67
2023-09-27T06:22:54.809Z,13.70
2023-09-27T06:25:25.735Z,13.76
2023-09-27T06:27:53.915Z,13.80
2023-09-27T06:30:23.967Z,13.90
2023-09-27T06:32:54.915Z,13.97
2023-09-27T06:35:23.133Z,14.00
2023-09-27T06:37:52.104Z,14.05
2023-09-27T06:40:26.213Z,14.15
2023-09-27T06:42:56.089Z,14.21
2023-09-27T06:45:26.426Z,14.26
2023-09-27T06:47:54.559Z,14.29
2023-09-27T06:50:23.229Z,14.31
2023-09-27T06:52:55.153Z,14.33
2023-09-27T06:55:28.795Z,14.35
2023-09-27T06:57:56.806Z,14.40
2023-09-27T07:00:29.055Z,14.43
2023-09-27T07:02:57.914Z,14.44
2023-09-27T07:05:27.434Z,14.50
2023-09-27T07:07:58.466Z,14.52
2023-09-27T07:10:26.456Z,14.56
2023-09-27T07:12:55.560Z,14.58
2023-09-27T07:15:24.054Z,14.65
2023-09-27T07:17:54.724Z,14.72
2023-09-27T07:20:29.073Z,14.75
2023-09-27T07:22:59.169Z,14.76
2023-09-27T07:25:29.685Z,14.81
2023-09-27T07:27:58.528Z,14.84
2023-09-27T07:30:28.075Z,14.89
2023-09-27T07:32:58.196Z,14.94
2023-09-27T07:35:34.155Z,14.92
2023-09-27T07:38:03.436Z,14.98
2023-09-27T07:40:32.018Z,14.99
2023-09-27T07:43:00.732Z,15.00
2023-09-27T07:45:31.959Z,15.03
2023-09-27T07:48:02.487Z,15.11
2023-09-27T07:50:32.561Z,15.18
2023-09-27T07:53:06.849Z,15.29
2023-09-27T07:55:36.356Z,15.38
2023-09-27T07:58:05.327Z,15.47
2023-09-27T08:00:34.618Z,15.60
2023-09-27T08:03:04.867Z,15.68
2023-09-27T08:05:43.461Z,15.78
2023-09-27T08:08:15.935Z,15.87
2023-09-27T08:10:46.828Z,16.03
2023-09-27T08:13:20.912Z,16.20
2023-09-27T08:15:51.176Z,16.26
2023-09-27T08:18:20.978Z,16.35
2023-09-27T08:20:49.369Z,16.44
2023-09-27T08:23:22.319Z,16.54
2023-09-27T08:25:55.020Z,16.66
2023-09-27T08:28:24.848Z,16.74
2023-09-27T08:30:53.055Z,16.81
2023-09-27T08:33:23.272Z,16.87
2023-09-27T08:35:54.818Z,16.97
2023-09-27T08:38:28.922Z,17.06
2023-09-27T08:40:57.564Z,17.17
2023-09-27T08:43:27.504Z,17.23
2023-09-27T08:46:03.377Z,17.35
2023-09-27T08:48:33.562Z,17.42
2023-09-27T08:51:06.028Z,17.50
2023-09-27T08:53:36.388Z,17.58
2023-09-27T08:56:08.679Z,17.65
2023-09-27T08:58:39.911Z,17.71
2023-09-27T09:01:09.138Z,17.77
2023-09-27T09:03:41.383Z,17.87
2023-09-27T09:06:14.338Z,18.00
2023-09-27T09:08:44.377Z,18.08
2023-09-27T09:11:14.782Z,18.17
2023-09-27T09:14:00.227Z,18.29
2023-09-27T09:16:30.971Z,18.39
2023-09-27T09:19:19.165Z,18.47
2023-09-27T09:22:03.999Z,18.62
2023-09-27T09:24:36.209Z,18.70
2023-09-27T09:27:09.992Z,18.83
2023-09-27T09:29:48.054Z,18.95
2023-09-27T09:32:20.089Z,19.03
2023-09-27T09:34:51.056Z,19.13
2023-09-27T09:37:22.947Z,19.33
2023-09-27T09:39:55.746Z,19.40
2023-09-27T09:42:35.577Z,19.53
2023-09-27T09:45:08.400Z,19.64
2023-09-27T09:47:37.592Z,19.92
2023-09-27T09:50:17.700Z,20.01
2023-09-27T09:52:54.479Z,20.14
2023-09-27T09:55:42.337Z,20.24
2023-09-27T09:58:23.575Z,20.40
2023-09-27T10:00:55.756Z,20.54
2023-09-27T10:03:28.587Z,20.70
2023-09-27T10:05:59.105Z,20.88
2023-09-27T10:08:29.774Z,21.01
2023-09-27T10:10:59.346Z,21.16
2023-09-27T10:13:38.983Z,21.31
2023-09-27T10:16:11.136Z,21.43
2023-09-27T10:18:42.795Z,21.54
2023-09-27T10:21:14.556Z,21.65
2023-09-27T10:24:04.361Z,21.80
2023-09-27T10:26:39.091Z,21.92
2023-09-27T10:29:16.795Z,22.08
2023-09-27T10:32:21.993Z,22.09
2023-09-27T10:34:53.033Z,22.15
2023-09-27T10:38:00.398Z,22.28
2023-09-27T10:40:30.554Z,22.35
2023-09-27T10:42:58.939Z,22.40
2023-09-27T10:45:27.765Z,22.47
2023-09-27T10:47:58.182Z,22.55
2023-09-27T10:50:31.894Z,22.63
2023-09-27T10:53:03.006Z,22.78
2023-09-27T10:55:39.939Z,22.96
2023-09-27T10:58:16.830Z,23.10
2023-09-27T11:01:01.581Z,23.22
2023-09-27T11:03:32.494Z,23.32
2023-09-27T11:06:10.438Z,23.26
2023-09-27T11:08:41.401Z,23.10
2023-09-27T11:11:11.441Z,23.01
2023-09-27T11:13:43.851Z,23.04
2023-09-27T11:16:15.046Z,23.02
2023-09-27T11:18:50.548Z,23.01
2023-09-27T11:21:18.775Z,22.97
2023-09-27T11:23:55.202Z,22.94
2023-09-27T11:26:30.425Z,22.87
2023-09-27T11:29:01.799Z,22.93
2023-09-27T11:31:31.921Z,22.93
2023-09-27T11:34:14.236Z,22.94
2023-09-27T11:36:45.576Z,22.87
2023-09-27T11:39:17.543Z,22.89
2023-09-27T11:41:49.182Z,22.91
2023-09-27T11:44:19.366Z,22.99
2023-09-27T11:46:49.669Z,23.15
2023-09-27T11:49:20.864Z,23.32
2023-09-27T11:51:49.892Z,23.51
2023-09-27T11:54:21.066Z,23.74
2023-09-27T11:56:54.826Z,23.95
2023-09-27T11:59:23.091Z,24.11
2023-09-27T12:01:55.506Z,24.25
2023-09-27T12:04:27.364Z,24.42
2023-09-27T12:06:56.421Z,24.53
2023-09-27T12:09:27.724Z,24.66
2023-09-27T12:11:59.044Z,24.77
2023-09-27T12:14:29.648Z,24.91
2023-09-27T12:17:11.595Z,25.05
2023-09-27T12:19:39.758Z,25.16
2023-09-27T12:22:17.351Z,25.33
2023-09-27T12:24:58.958Z,25.43
2023-09-27T12:27:29.762Z,25.50
2023-09-27T12:30:00.973Z,25.64
2023-09-27T12:32:34.657Z,25.79
2023-09-27T12:35:14.161Z,25.95
2023-09-27T12:37:48.348Z,26.08
2023-09-27T12:40:32.117Z,26.16
2023-09-27T12:43:03.488Z,26.33
2023-09-27T12:45:37.695Z,26.45
2023-09-27T12:48:09.418Z,26.57
2023-09-27T12:50:43.717Z,26.63
2023-09-27T12:53:17.414Z,26.78
2023-09-27T12:55:53.293Z,26.95
2023-09-27T12:58:24.595Z,27.06
2023-09-27T13:00:55.729Z,27.22
2023-09-27T13:03:36.441Z,27.26
2023-09-27T13:06:07.210Z,27.40
2023-09-27T13:08:35.984Z,27.48
2023-09-27T13:11:13.531Z,27.49
2023-09-27T13:13:47.431Z,27.44
2023-09-27T13:16:18.208Z,27.57
2023-09-27T13:18:58.968Z,27.63
2023-09-27T13:21:33.617Z,27.67
2023-09-27T13:24:02.539Z,27.76
2023-09-27T13:26:34.084Z,27.82
2023-09-27T13:29:11.604Z,27.93
2023-09-27T13:31:57.828Z,28.04
2023-09-27T13:34:36.796Z,28.18
2023-09-27T14:02:41.774Z,29.14
2023-09-27T14:05:29.482Z,29.22
2023-09-27T14:11:57.975Z,29.43
2023-09-27T14:15:23.778Z,29.20
2023-09-27T14:25:07.393Z,29.14
2023-09-27T14:27:45.353Z,29.09
2023-09-27T14:30:15.632Z,29.08
2023-09-27T14:32:45.627Z,28.98
2023-09-27T14:35:17.345Z,28.88
2023-09-27T14:37:59.598Z,28.84
2023-09-27T14:40:29.248Z,28.81
2023-09-27T14:43:01.323Z,28.80
2023-09-27T14:45:38.096Z,28.67
2023-09-27T14:48:07.748Z,28.51
2023-09-27T14:50:35.966Z,28.37
2023-09-27T14:53:06.590Z,28.37
2023-09-27T14:55:37.839Z,28.29
2023-09-27T14:58:10.584Z,28.22
2023-09-27T15:00:42.231Z,28.14
2023-09-27T15:03:12.574Z,28.06
2023-09-27T15:05:44.977Z,28.04
2023-09-27T15:08:21.053Z,27.96
2023-09-27T15:10:57.937Z,27.87
2023-09-27T15:13:34.519Z,27.79
2023-09-27T15:16:08.289Z,27.74
2023-09-27T15:18:43.591Z,27.71
2023-09-27T15:21:12.579Z,27.57
2023-09-27T15:23:48.258Z,27.53
2023-09-27T15:26:20.352Z,27.47
2023-09-27T15:28:51.681Z,27.38
2023-09-27T15:31:19.651Z,27.32
2023-09-27T15:33:51.881Z,27.24
2023-09-27T15:36:23.582Z,27.21
2023-09-27T15:38:53.358Z,27.12
2023-09-27T15:41:22.647Z,26.97
2023-09-27T15:43:51.902Z,26.83
2023-09-27T15:46:20.708Z,26.71
2023-09-27T15:48:49.337Z,26.55
2023-09-27T15:51:18.970Z,26.44
2023-09-27T15:53:49.102Z,26.32
2023-09-27T15:56:19.406Z,26.19
2023-09-27T15:58:50.019Z,26.10
2023-09-27T16:01:18.214Z,25.98
2023-09-27T16:03:46.210Z,25.85
2023-09-27T16:06:17.792Z,25.75
2023-09-27T16:08:48.535Z,25.63
2023-09-27T16:11:17.200Z,25.48
2023-09-27T16:13:45.214Z,25.36
2023-09-27T16:16:39.621Z,25.22
2023-09-27T16:19:09.468Z,25.06
2023-09-27T16:21:38.270Z,24.93
2023-09-27T16:24:13.091Z,24.77
2023-09-27T16:26:46.006Z,24.63
2023-09-27T16:29:17.726Z,24.50
2023-09-27T16:31:52.254Z,24.35
2023-09-27T16:34:26.278Z,24.23
2023-09-27T16:36:58.813Z,24.07
2023-09-27T16:39:29.025Z,23.94
2023-09-27T16:41:59.826Z,23.81
2023-09-27T16:44:28.894Z,23.71
2023-09-27T16:47:01.099Z,23.59
2023-09-27T16:49:34.905Z,23.47
2023-09-27T16:52:03.765Z,23.36
2023-09-27T16:54:31.827Z,23.22
2023-09-27T16:57:28.821Z,23.10
2023-09-27T17:00:00.650Z,22.95
2023-09-27T17:02:37.348Z,22.84
2023-09-27T17:05:14.389Z,22.70
2023-09-27T17:10:42.568Z,22.39
2023-09-27T17:13:27.048Z,22.25
2023-09-27T17:15:59.488Z,22.15
2023-09-27T17:18:59.493Z,22.01
2023-09-27T17:21:51.511Z,21.88
2023-09-27T17:24:23.908Z,21.82
2023-09-27T17:26:58.662Z,21.69
2023-09-27T17:29:27.256Z,21.58
2023-09-27T17:32:01.321Z,21.48
2023-09-27T17:34:45.381Z,21.36
2023-09-27T17:37:28.811Z,21.29
2023-09-27T17:39:59.493Z,21.21
2023-09-27T17:42:28.443Z,21.13
2023-09-27T17:44:56.311Z,21.06
2023-09-27T17:47:25.701Z,20.98
2023-09-27T17:49:54.992Z,20.89
2023-09-27T17:52:23.120Z,20.81
2023-09-27T17:54:51.075Z,20.76
2023-09-27T17:57:20.217Z,20.67
2023-09-27T17:59:48.374Z,20.61
2023-09-27T18:02:16.439Z,20.55
2023-09-27T18:04:44.666Z,20.48
2023-09-27T18:07:13.893Z,20.42
2023-09-27T18:09:41.752Z,20.35
2023-09-27T18:12:09.811Z,20.28
2023-09-27T18:14:38.475Z,20.20
2023-09-27T18:17:07.036Z,20.15
2023-09-27T18:19:35.234Z,20.07
2023-09-27T18:22:03.513Z,20.03
2023-09-27T18:24:32.998Z,19.97
2023-09-27T18:27:01.505Z,19.92
2023-09-27T18:29:33.352Z,19.86
2023-09-27T18:32:01.970Z,19.78
2023-09-27T18:34:30.027Z,19.72
2023-09-27T18:36:57.984Z,19.69
2023-09-27T18:39:26.198Z,19.65
2023-09-27T18:41:57.974Z,19.58
2023-09-27T18:44:26.996Z,19.52
2023-09-27T18:46:54.952Z,19.44
2023-09-27T18:49:25.602Z,19.36
2023-09-27T18:51:54.621Z,19.31
2023-09-27T18:54:24.585Z,19.25
2023-09-27T18:56:52.985Z,19.18
2023-09-27T18:59:25.128Z,19.11
2023-09-27T19:01:55.086Z,19.08
2023-09-27T19:04:23.343Z,19.03
2023-09-27T19:06:51.479Z,18.96
2023-09-27T19:09:19.669Z,18.93
2023-09-27T19:11:49.938Z,18.89
2023-09-27T19:14:19.976Z,18.84
2023-09-27T19:16:49.407Z,18.81
2023-09-27T19:19:19.626Z,18.77
2023-09-27T19:21:50.469Z,18.74
2023-09-27T19:24:19.468Z,18.71
2023-09-27T19:26:47.407Z,18.68
2023-09-27T19:29:15.573Z,18.66
2023-09-27T19:31:44.523Z,18.63
2023-09-27T19:34:13.806Z,18.57
2023-09-27T19:36:42.197Z,18.57
2023-09-27T19:39:12.479Z,18.56
2023-09-27T19:41:42.313Z,18.53
2023-09-27T19:44:14.437Z,18.51
2023-09-27T19:46:42.509Z,18.48
2023-09-27T19:49:10.791Z,18.43
2023-09-27T19:51:40.241Z,18.40
2023-09-27T19:54:08.796Z,18.37
2023-09-27T19:56:36.798Z,18.33
2023-09-27T19:59:12.856Z,18.31
2023-09-27T20:01:44.622Z,18.27
2023-09-27T20:04:12.557Z,18.25
2023-09-27T20:06:42.366Z,18.21
2023-09-27T20:09:10.649Z,18.19
2023-09-27T20:11:38.848Z,18.16
2023-09-27T20:14:07.964Z,18.12
2023-09-27T20:16:36.407Z,18.10
2023-09-27T20:19:05.775Z,18.07
2023-09-27T20:21:36.111Z,18.03
2023-09-27T20:24:06.017Z,17.99
2023-09-27T20:26:35.446Z,17.95
2023-09-27T20:29:03.774Z,17.93
2023-09-27T20:31:32.023Z,17.91
2023-09-27T20:34:00.182Z,17.85
2023-09-27T20:36:28.771Z,17.83
2023-09-27T20:38:56.738Z,17.79
2023-09-27T20:41:26.645Z,17.76
2023-09-27T20:43:54.821Z,17.72
2023-09-27T20:46:25.377Z,17.70
2023-09-27T20:48:56.560Z,17.69
2023-09-27T20:51:24.511Z,17.68
2023-09-27T20:53:52.984Z,17.63
2023-09-27T20:56:21.549Z,17.61
2023-09-27T20:58:54.793Z,17.57
2023-09-27T21:01:27.322Z,17.52
2023-09-27T21:03:56.669Z,17.50
2023-09-27T21:06:26.188Z,17.46
2023-09-27T21:08:54.077Z,17.42
2023-09-27T21:11:23.875Z,17.39
2023-09-27T21:13:55.679Z,17.36
2023-09-27T21:16:25.407Z,17.33
2023-09-27T21:18:54.099Z,17.31
2023-09-27T21:21:24.951Z,17.30
2023-09-27T21:23:56.291Z,17.26
2023-09-27T21:26:25.258Z,17.23
2023-09-27T21:28:54.641Z,17.20
2023-09-27T21:31:22.895Z,17.16
2023-09-27T21:33:51.215Z,17.14
2023-09-27T21:36:19.338Z,17.12
2023-09-27T21:38:48.521Z,17.09
2023-09-27T21:41:16.722Z,17.07
2023-09-27T21:43:44.736Z,17.02
2023-09-27T21:46:20.132Z,16.96
2023-09-27T21:48:50.257Z,16.95
2023-09-27T21:51:18.773Z,16.92
2023-09-27T21:53:46.936Z,16.87
2023-09-27T21:56:15.494Z,16.85
2023-09-27T21:58:43.923Z,16.81
2023-09-27T22:01:13.030Z,16.76
2023-09-27T22:03:42.942Z,16.74
2023-09-27T22:06:11.847Z,16.72
2023-09-27T22:08:49.310Z,16.69
2023-09-27T22:11:18.251Z,16.66
2023-09-27T22:13:51.806Z,16.64
2023-09-27T22:16:22.886Z,16.60
2023-09-27T22:18:52.881Z,16.57
2023-09-27T22:21:27.957Z,16.56
2023-09-27T22:23:57.471Z,16.52
2023-09-27T22:26:26.566Z,16.49
2023-09-27T22:28:57.623Z,16.50
2023-09-27T22:31:31.813Z,16.45
2023-09-27T22:34:11.698Z,16.43
2023-09-27T22:36:47.832Z,16.42
2023-09-27T22:39:20.253Z,16.40
2023-09-27T22:41:49.746Z,16.41
2023-09-27T22:44:24.029Z,16.43
2023-09-27T22:46:54.590Z,16.42
2023-09-27T22:49:25.559Z,16.42
2023-09-27T22:51:54.082Z,16.38
2023-09-27T22:54:23.516Z,16.36
2023-09-27T22:56:54.417Z,16.35
2023-09-27T22:59:23.607Z,16.36
2023-09-27T23:01:56.730Z,16.35
2023-09-27T23:04:27.177Z,16.33
2023-09-27T23:07:01.620Z,16.28
2023-09-27T23:09:36.067Z,16.28
2023-09-27T23:12:19.859Z,16.26
2023-09-27T23:15:10.507Z,16.23
2023-09-27T23:18:00.314Z,16.22
2023-09-27T23:20:32.260Z,16.20
2023-09-27T23:23:07.209Z,16.18
2023-09-27T23:25:54.875Z,16.16
2023-09-27T23:28:41.420Z,16.16
2023-09-27T23:31:13.026Z,16.09
2023-09-27T23:33:43.289Z,16.08
2023-09-27T23:36:25.620Z,16.08
2023-09-27T23:39:00.499Z,16.07
2023-09-27T23:41:31.329Z,16.06
2023-09-27T23:44:01.233Z,16.06
2023-09-27T23:46:30.403Z,16.06
2023-09-27T23:49:03.393Z,16.08
2023-09-27T23:51:34.779Z,16.07
2023-09-27T23:54:03.821Z,16.08
2023-09-27T23:56:35.800Z,16.07
2023-09-27T23:59:09.979Z,16.04
